sensor_id;sensor_type;location;lat;lon;timestamp;pressure;altitude;pressure_sealevel;temperature;humidity
73936;BME280;62287;50.858;0.252;2022-12-29T00:00:01;99578.87;;;13.38;42.64
73936;BME280;62287;50.858;0.252;2022-12-29T00:00:32;99564.53;;;13.84;42.41
73936;BME280;62287;50.858;0.252;2022-12-29T00:01:04;99568.86;;;13.12;42.60
73936;BME280;62287;50.858;0.252;2022-12-29T00:01:35;99559.75;;;13.61;42.66
73936;BME280;62287;50.858;0.252;2022-12-29T00:02:07;99561.30;;;13.63;42.60
73936;BME280;62287;50.858;0.252;2022-12-29T00:02:38;99563.18;;;13.54;42.37
73936;BME280;62287;50.858;0.252;2022-12-29T00:03:09;99563.16;;;13.63;42.57
73936;BME280;62287;50.858;0.252;2022-12-29T00:03:40;99559.52;;;13.65;42.66
73936;BME280;62287;50.858;0.252;2022-12-29T00:04:12;99555.33;;;13.37;42.66
73936;BME280;62287;50.858;0.252;2022-12-29T00:04:44;99555.06;;;13.70;42.67
73936;BME280;62287;50.858;0.252;2022-12-29T00:05:15;99557.21;;;13.77;42.73
73936;BME280;62287;50.858;0.252;2022-12-29T00:05:54;99557.77;;;13.64;42.84
73936;BME280;62287;50.858;0.252;2022-12-29T00:06:25;99560.02;;;13.68;42.87
73936;BME280;62287;50.858;0.252;2022-12-29T00:06:56;99556.65;;;13.85;42.74
73936;BME280;62287;50.858;0.252;2022-12-29T00:07:27;99559.73;;;13.73;42.81
73936;BME280;62287;50.858;0.252;2022-12-29T00:07:58;99569.85;;;13.92;42.66
73936;BME280;62287;50.858;0.252;2022-12-29T00:08:29;99564.20;;;13.91;42.61
73936;BME280;62287;50.858;0.252;2022-12-29T00:09:00;99567.03;;;13.95;42.59
73936;BME280;62287;50.858;0.252;2022-12-29T00:09:31;99567.55;;;13.99;42.51
73936;BME280;62287;50.858;0.252;2022-12-29T00:10:03;99560.00;;;14.12;42.32
73936;BME280;62287;50.858;0.252;2022-12-29T00:10:34;99567.97;;;14.43;42.44
73936;BME280;62287;50.858;0.252;2022-12-29T00:11:06;99560.40;;;13.94;42.52
73936;BME280;62287;50.858;0.252;2022-12-29T00:11:38;99571.97;;;13.99;42.45
73936;BME280;62287;50.858;0.252;2022-12-29T00:12:09;99571.28;;;14.04;42.34
73936;BME280;62287;50.858;0.252;2022-12-29T00:12:40;99564.63;;;14.19;42.32
73936;BME280;62287;50.858;0.252;2022-12-29T00:13:11;99560.79;;;14.09;42.32
73936;BME280;62287;50.858;0.252;2022-12-29T00:13:42;99566.06;;;14.09;42.59
73936;BME280;62287;50.858;0.252;2022-12-29T00:14:14;99568.79;;;14.02;42.78
73936;BME280;62287;50.858;0.252;2022-12-29T00:14:45;99568.41;;;13.54;43.22
73936;BME280;62287;50.858;0.252;2022-12-29T00:15:16;99571.99;;;13.61;43.35
73936;BME280;62287;50.858;0.252;2022-12-29T00:15:46;99563.30;;;13.70;43.18
73936;BME280;62287;50.858;0.252;2022-12-29T00:16:17;99564.80;;;13.75;43.14
73936;BME280;62287;50.858;0.252;2022-12-29T00:16:48;99571.73;;;13.76;43.15
73936;BME280;62287;50.858;0.252;2022-12-29T00:17:19;99569.88;;;13.42;43.50
73936;BME280;62287;50.858;0.252;2022-12-29T00:17:50;99560.20;;;13.72;43.16
73936;BME280;62287;50.858;0.252;2022-12-29T00:18:21;99565.33;;;13.81;42.97
73936;BME280;62287;50.858;0.252;2022-12-29T00:18:52;99566.23;;;14.15;43.02
73936;BME280;62287;50.858;0.252;2022-12-29T00:19:23;99568.87;;;13.48;43.00
73936;BME280;62287;50.858;0.252;2022-12-29T00:19:54;99559.07;;;13.94;42.85
73936;BME280;62287;50.858;0.252;2022-12-29T00:20:25;99558.72;;;13.69;42.80
73936;BME280;62287;50.858;0.252;2022-12-29T00:20:56;99560.16;;;14.04;42.81
73936;BME280;62287;50.858;0.252;2022-12-29T00:21:28;99559.88;;;13.91;42.82
73936;BME280;62287;50.858;0.252;2022-12-29T00:21:59;99560.81;;;13.75;42.64
73936;BME280;62287;50.858;0.252;2022-12-29T00:22:30;99563.74;;;13.76;43.03
73936;BME280;62287;50.858;0.252;2022-12-29T00:23:01;99559.80;;;13.82;42.98
73936;BME280;62287;50.858;0.252;2022-12-29T00:23:31;99560.30;;;14.09;42.71
73936;BME280;62287;50.858;0.252;2022-12-29T00:24:03;99560.08;;;13.80;43.00
73936;BME280;62287;50.858;0.252;2022-12-29T00:24:35;99561.94;;;13.92;42.94
73936;BME280;62287;50.858;0.252;2022-12-29T00:25:08;99557.18;;;14.14;42.81
73936;BME280;62287;50.858;0.252;2022-12-29T00:25:40;99557.35;;;13.91;43.07
73936;BME280;62287;50.858;0.252;2022-12-29T00:26:13;99563.59;;;14.03;42.90
73936;BME280;62287;50.858;0.252;2022-12-29T00:26:47;99554.34;;;14.17;42.88
73936;BME280;62287;50.858;0.252;2022-12-29T00:27:18;99564.33;;;14.06;42.83
73936;BME280;62287;50.858;0.252;2022-12-29T00:27:49;99566.97;;;14.17;42.99
73936;BME280;62287;50.858;0.252;2022-12-29T00:28:20;99560.48;;;13.70;43.07
73936;BME280;62287;50.858;0.252;2022-12-29T00:28:51;99559.18;;;13.84;43.30
73936;BME280;62287;50.858;0.252;2022-12-29T00:29:21;99554.46;;;14.22;42.90
73936;BME280;62287;50.858;0.252;2022-12-29T00:29:52;99567.97;;;13.99;42.72
73936;BME280;62287;50.858;0.252;2022-12-29T00:30:23;99560.38;;;14.06;42.65
73936;BME280;62287;50.858;0.252;2022-12-29T00:30:59;99562.78;;;14.40;42.57
73936;BME280;62287;50.858;0.252;2022-12-29T00:31:30;99562.05;;;14.04;42.55
73936;BME280;62287;50.858;0.252;2022-12-29T00:32:01;99561.99;;;13.61;42.70
73936;BME280;62287;50.858;0.252;2022-12-29T00:32:32;99566.84;;;13.62;42.85
73936;BME280;62287;50.858;0.252;2022-12-29T00:33:09;99566.24;;;13.75;42.89
73936;BME280;62287;50.858;0.252;2022-12-29T00:33:40;99558.70;;;14.04;42.62
73936;BME280;62287;50.858;0.252;2022-12-29T00:34:11;99551.48;;;13.71;42.88
73936;BME280;62287;50.858;0.252;2022-12-29T00:34:42;99563.98;;;13.57;42.99
73936;BME280;62287;50.858;0.252;2022-12-29T00:35:21;99565.09;;;13.67;42.91
73936;BME280;62287;50.858;0.252;2022-12-29T00:35:55;99557.42;;;13.60;42.89
73936;BME280;62287;50.858;0.252;2022-12-29T00:36:31;99566.45;;;13.89;42.65
73936;BME280;62287;50.858;0.252;2022-12-29T00:37:03;99571.12;;;13.30;43.16
73936;BME280;62287;50.858;0.252;2022-12-29T00:37:34;99565.73;;;13.27;43.37
73936;BME280;62287;50.858;0.252;2022-12-29T00:38:07;99571.82;;;13.52;43.11
73936;BME280;62287;50.858;0.252;2022-12-29T00:38:43;99562.42;;;13.52;42.94
73936;BME280;62287;50.858;0.252;2022-12-29T00:39:17;99565.06;;;13.89;42.96
73936;BME280;62287;50.858;0.252;2022-12-29T00:39:49;99568.56;;;13.45;43.05
73936;BME280;62287;50.858;0.252;2022-12-29T00:40:20;99566.95;;;13.31;43.18
73936;BME280;62287;50.858;0.252;2022-12-29T00:40:51;99565.35;;;13.39;43.09
73936;BME280;62287;50.858;0.252;2022-12-29T00:41:22;99564.10;;;13.13;43.34
73936;BME280;62287;50.858;0.252;2022-12-29T00:41:53;99561.18;;;13.19;43.41
73936;BME280;62287;50.858;0.252;2022-12-29T00:42:24;99568.94;;;13.25;43.67
73936;BME280;62287;50.858;0.252;2022-12-29T00:42:55;99577.21;;;12.86;43.72
73936;BME280;62287;50.858;0.252;2022-12-29T00:43:25;99561.46;;;12.26;43.84
73936;BME280;62287;50.858;0.252;2022-12-29T00:43:56;99564.60;;;12.90;43.72
73936;BME280;62287;50.858;0.252;2022-12-29T00:44:27;99564.03;;;13.28;43.72
73936;BME280;62287;50.858;0.252;2022-12-29T00:44:58;99561.55;;;13.02;43.63
73936;BME280;62287;50.858;0.252;2022-12-29T00:45:29;99565.43;;;13.15;43.45
73936;BME280;62287;50.858;0.252;2022-12-29T00:46:00;99573.61;;;13.08;43.44
73936;BME280;62287;50.858;0.252;2022-12-29T00:46:31;99568.39;;;13.17;43.42
73936;BME280;62287;50.858;0.252;2022-12-29T00:47:02;99575.53;;;13.14;43.48
73936;BME280;62287;50.858;0.252;2022-12-29T00:47:33;99576.61;;;13.45;43.26
73936;BME280;62287;50.858;0.252;2022-12-29T00:48:04;99578.30;;;13.62;42.97
73936;BME280;62287;50.858;0.252;2022-12-29T00:48:35;99564.89;;;13.91;42.90
73936;BME280;62287;50.858;0.252;2022-12-29T00:49:08;99562.83;;;13.65;42.89
73936;BME280;62287;50.858;0.252;2022-12-29T00:49:39;99560.97;;;13.60;42.91
73936;BME280;62287;50.858;0.252;2022-12-29T00:50:11;99573.26;;;13.74;42.93
73936;BME280;62287;50.858;0.252;2022-12-29T00:50:41;99562.91;;;13.65;42.88
73936;BME280;62287;50.858;0.252;2022-12-29T00:51:12;99569.33;;;13.43;43.07
73936;BME280;62287;50.858;0.252;2022-12-29T00:51:43;99569.75;;;13.30;43.23
73936;BME280;62287;50.858;0.252;2022-12-29T00:52:14;99559.50;;;13.23;43.37
73936;BME280;62287;50.858;0.252;2022-12-29T00:52:45;99569.93;;;13.19;43.49
73936;BME280;62287;50.858;0.252;2022-12-29T00:53:16;99567.35;;;13.30;43.34
73936;BME280;62287;50.858;0.252;2022-12-29T00:53:47;99570.07;;;13.17;43.51
73936;BME280;62287;50.858;0.252;2022-12-29T00:54:18;99571.84;;;13.26;43.51
73936;BME280;62287;50.858;0.252;2022-12-29T00:54:49;99567.24;;;13.12;43.62
73936;BME280;62287;50.858;0.252;2022-12-29T00:55:20;99565.00;;;13.47;43.25
73936;BME280;62287;50.858;0.252;2022-12-29T00:55:51;99570.70;;;13.20;43.39
73936;BME280;62287;50.858;0.252;2022-12-29T00:56:22;99563.53;;;13.59;43.58
73936;BME280;62287;50.858;0.252;2022-12-29T00:56:53;99572.18;;;13.47;43.40
73936;BME280;62287;50.858;0.252;2022-12-29T00:57:25;99573.15;;;13.41;43.40
73936;BME280;62287;50.858;0.252;2022-12-29T00:57:56;99556.72;;;13.23;43.68
73936;BME280;62287;50.858;0.252;2022-12-29T00:58:27;99551.88;;;14.01;43.21
73936;BME280;62287;50.858;0.252;2022-12-29T00:59:00;99544.17;;;13.67;43.26
73936;BME280;62287;50.858;0.252;2022-12-29T00:59:31;99552.68;;;13.48;43.47
73936;BME280;62287;50.858;0.252;2022-12-29T01:00:03;99563.84;;;13.66;43.54
73936;BME280;62287;50.858;0.252;2022-12-29T01:00:34;99551.42;;;13.11;43.79
73936;BME280;62287;50.858;0.252;2022-12-29T01:01:06;99556.65;;;13.12;43.82
73936;BME280;62287;50.858;0.252;2022-12-29T01:01:38;99552.49;;;13.02;43.93
73936;BME280;62287;50.858;0.252;2022-12-29T01:02:10;99556.22;;;13.28;43.58
73936;BME280;62287;50.858;0.252;2022-12-29T01:02:41;99551.47;;;13.23;43.70
73936;BME280;62287;50.858;0.252;2022-12-29T01:03:12;99549.03;;;13.69;43.60
73936;BME280;62287;50.858;0.252;2022-12-29T01:03:43;99551.10;;;13.11;43.79
73936;BME280;62287;50.858;0.252;2022-12-29T01:04:14;99546.25;;;14.00;43.59
73936;BME280;62287;50.858;0.252;2022-12-29T01:04:45;99550.29;;;13.07;43.87
73936;BME280;62287;50.858;0.252;2022-12-29T01:05:16;99546.66;;;13.15;43.84
73936;BME280;62287;50.858;0.252;2022-12-29T01:05:46;99556.81;;;12.67;43.96
73936;BME280;62287;50.858;0.252;2022-12-29T01:06:17;99542.07;;;13.63;43.75
73936;BME280;62287;50.858;0.252;2022-12-29T01:06:49;99549.64;;;13.88;43.77
73936;BME280;62287;50.858;0.252;2022-12-29T01:07:20;99551.35;;;12.89;44.01
73936;BME280;62287;50.858;0.252;2022-12-29T01:07:51;99548.62;;;13.54;43.76
73936;BME280;62287;50.858;0.252;2022-12-29T01:08:22;99545.87;;;12.67;43.92
73936;BME280;62287;50.858;0.252;2022-12-29T01:08:53;99545.65;;;13.28;43.67
73936;BME280;62287;50.858;0.252;2022-12-29T01:09:24;99541.77;;;13.52;43.75
73936;BME280;62287;50.858;0.252;2022-12-29T01:09:55;99554.06;;;13.31;43.54
73936;BME280;62287;50.858;0.252;2022-12-29T01:10:26;99550.48;;;13.27;43.58
73936;BME280;62287;50.858;0.252;2022-12-29T01:10:58;99552.30;;;13.31;43.50
73936;BME280;62287;50.858;0.252;2022-12-29T01:11:29;99543.89;;;13.29;43.63
73936;BME280;62287;50.858;0.252;2022-12-29T01:12:00;99551.70;;;13.14;43.66
73936;BME280;62287;50.858;0.252;2022-12-29T01:12:33;99549.88;;;13.63;43.58
73936;BME280;62287;50.858;0.252;2022-12-29T01:13:04;99552.95;;;13.07;43.68
73936;BME280;62287;50.858;0.252;2022-12-29T01:13:36;99557.44;;;13.26;43.50
73936;BME280;62287;50.858;0.252;2022-12-29T01:14:07;99549.24;;;13.76;43.02
73936;BME280;62287;50.858;0.252;2022-12-29T01:14:38;99558.59;;;13.27;43.48
73936;BME280;62287;50.858;0.252;2022-12-29T01:15:12;99553.42;;;13.95;43.48
73936;BME280;62287;50.858;0.252;2022-12-29T01:15:49;99548.26;;;14.14;43.17
73936;BME280;62287;50.858;0.252;2022-12-29T01:16:20;99559.10;;;13.36;43.44
73936;BME280;62287;50.858;0.252;2022-12-29T01:16:52;99553.59;;;12.95;43.75
73936;BME280;62287;50.858;0.252;2022-12-29T01:17:22;99556.36;;;13.06;43.73
73936;BME280;62287;50.858;0.252;2022-12-29T01:17:53;99557.52;;;13.23;43.54
73936;BME280;62287;50.858;0.252;2022-12-29T01:18:25;99559.12;;;13.64;43.46
73936;BME280;62287;50.858;0.252;2022-12-29T01:18:56;99554.66;;;13.53;43.22
73936;BME280;62287;50.858;0.252;2022-12-29T01:19:28;99552.35;;;13.42;43.25
73936;BME280;62287;50.858;0.252;2022-12-29T01:19:59;99563.38;;;13.52;43.13
73936;BME280;62287;50.858;0.252;2022-12-29T01:20:30;99556.32;;;13.52;43.09
73936;BME280;62287;50.858;0.252;2022-12-29T01:21:02;99558.86;;;13.42;43.19
73936;BME280;62287;50.858;0.252;2022-12-29T01:21:34;99564.48;;;13.63;42.99
73936;BME280;62287;50.858;0.252;2022-12-29T01:22:05;99565.11;;;14.05;42.84
73936;BME280;62287;50.858;0.252;2022-12-29T01:22:36;99569.57;;;13.47;43.03
73936;BME280;62287;50.858;0.252;2022-12-29T01:23:07;99561.18;;;13.68;42.83
73936;BME280;62287;50.858;0.252;2022-12-29T01:23:38;99565.78;;;13.37;43.15
73936;BME280;62287;50.858;0.252;2022-12-29T01:24:09;99564.06;;;14.18;42.78
73936;BME280;62287;50.858;0.252;2022-12-29T01:24:40;99561.50;;;13.97;43.17
73936;BME280;62287;50.858;0.252;2022-12-29T01:25:11;99561.22;;;13.29;43.20
73936;BME280;62287;50.858;0.252;2022-12-29T01:25:42;99562.99;;;13.19;43.23
73936;BME280;62287;50.858;0.252;2022-12-29T01:26:15;99560.47;;;13.56;43.19
73936;BME280;62287;50.858;0.252;2022-12-29T01:26:47;99547.83;;;13.00;43.43
73936;BME280;62287;50.858;0.252;2022-12-29T01:27:18;99563.61;;;13.09;43.35
73936;BME280;62287;50.858;0.252;2022-12-29T01:27:49;99570.23;;;13.04;43.39
73936;BME280;62287;50.858;0.252;2022-12-29T01:28:20;99554.17;;;13.15;43.28
73936;BME280;62287;50.858;0.252;2022-12-29T01:28:52;99554.74;;;12.94;43.50
73936;BME280;62287;50.858;0.252;2022-12-29T01:29:23;99568.39;;;12.83;43.76
73936;BME280;62287;50.858;0.252;2022-12-29T01:29:54;99557.91;;;13.64;43.72
73936;BME280;62287;50.858;0.252;2022-12-29T01:30:25;99550.91;;;13.05;43.59
73936;BME280;62287;50.858;0.252;2022-12-29T01:31:00;99554.73;;;13.38;43.59
73936;BME280;62287;50.858;0.252;2022-12-29T01:31:31;99556.92;;;13.46;43.36
73936;BME280;62287;50.858;0.252;2022-12-29T01:32:02;99557.31;;;13.33;43.36
73936;BME280;62287;50.858;0.252;2022-12-29T01:32:33;99556.35;;;12.99;43.41
73936;BME280;62287;50.858;0.252;2022-12-29T01:33:05;99559.81;;;12.87;43.53
73936;BME280;62287;50.858;0.252;2022-12-29T01:33:36;99553.13;;;13.64;43.26
73936;BME280;62287;50.858;0.252;2022-12-29T01:34:07;99557.15;;;13.27;43.20
73936;BME280;62287;50.858;0.252;2022-12-29T01:34:38;99556.52;;;13.04;43.36
73936;BME280;62287;50.858;0.252;2022-12-29T01:35:09;99559.89;;;13.01;43.32
73936;BME280;62287;50.858;0.252;2022-12-29T01:35:40;99553.79;;;12.76;43.52
73936;BME280;62287;50.858;0.252;2022-12-29T01:36:13;99565.19;;;13.02;43.58
73936;BME280;62287;50.858;0.252;2022-12-29T01:36:44;99567.77;;;12.89;43.37
73936;BME280;62287;50.858;0.252;2022-12-29T01:37:15;99563.75;;;13.00;43.20
73936;BME280;62287;50.858;0.252;2022-12-29T01:37:46;99563.34;;;13.17;42.99
73936;BME280;62287;50.858;0.252;2022-12-29T01:38:17;99562.93;;;13.16;43.02
73936;BME280;62287;50.858;0.252;2022-12-29T01:38:54;99568.15;;;13.25;42.98
73936;BME280;62287;50.858;0.252;2022-12-29T01:39:24;99561.77;;;13.02;43.02
73936;BME280;62287;50.858;0.252;2022-12-29T01:39:55;99564.89;;;13.27;43.13
73936;BME280;62287;50.858;0.252;2022-12-29T01:40:26;99564.40;;;13.17;43.08
73936;BME280;62287;50.858;0.252;2022-12-29T01:40:58;99571.06;;;13.17;42.82
73936;BME280;62287;50.858;0.252;2022-12-29T01:41:29;99569.09;;;13.75;42.64
73936;BME280;62287;50.858;0.252;2022-12-29T01:42:00;99568.67;;;13.33;43.00
73936;BME280;62287;50.858;0.252;2022-12-29T01:42:31;99567.06;;;13.02;42.98
73936;BME280;62287;50.858;0.252;2022-12-29T01:43:04;99559.11;;;13.19;42.80
73936;BME280;62287;50.858;0.252;2022-12-29T01:43:40;99563.26;;;13.60;42.67
73936;BME280;62287;50.858;0.252;2022-12-29T01:45:17;99546.95;;;13.32;42.94
73936;BME280;62287;50.858;0.252;2022-12-29T01:45:51;99569.42;;;13.09;42.88
73936;BME280;62287;50.858;0.252;2022-12-29T01:46:25;99565.00;;;12.88;43.01
73936;BME280;62287;50.858;0.252;2022-12-29T01:46:57;99568.59;;;13.08;42.85
73936;BME280;62287;50.858;0.252;2022-12-29T01:47:33;99566.19;;;13.24;42.73
73936;BME280;62287;50.858;0.252;2022-12-29T01:48:05;99566.38;;;13.53;42.62
73936;BME280;62287;50.858;0.252;2022-12-29T01:48:39;99568.68;;;12.91;42.81
73936;BME280;62287;50.858;0.252;2022-12-29T01:49:13;99567.22;;;12.84;42.87
73936;BME280;62287;50.858;0.252;2022-12-29T01:49:45;99562.66;;;12.93;42.74
73936;BME280;62287;50.858;0.252;2022-12-29T01:50:30;99562.98;;;13.51;42.58
73936;BME280;62287;50.858;0.252;2022-12-29T01:51:02;99566.69;;;13.38;42.70
73936;BME280;62287;50.858;0.252;2022-12-29T01:51:37;99565.16;;;12.95;43.06
73936;BME280;62287;50.858;0.252;2022-12-29T01:52:08;99561.80;;;12.49;43.24
73936;BME280;62287;50.858;0.252;2022-12-29T01:52:42;99570.31;;;12.94;42.94
73936;BME280;62287;50.858;0.252;2022-12-29T01:53:22;99569.62;;;12.65;43.03
73936;BME280;62287;50.858;0.252;2022-12-29T01:53:58;99564.32;;;12.75;43.00
73936;BME280;62287;50.858;0.252;2022-12-29T01:54:32;99563.88;;;12.90;42.95
73936;BME280;62287;50.858;0.252;2022-12-29T01:55:05;99566.81;;;13.05;42.79
73936;BME280;62287;50.858;0.252;2022-12-29T01:55:40;99564.33;;;13.17;42.71
73936;BME280;62287;50.858;0.252;2022-12-29T01:56:15;99568.51;;;12.91;42.77
73936;BME280;62287;50.858;0.252;2022-12-29T01:56:50;99567.41;;;12.79;42.97
73936;BME280;62287;50.858;0.252;2022-12-29T01:57:26;99573.17;;;13.26;42.86
73936;BME280;62287;50.858;0.252;2022-12-29T01:58:02;99573.28;;;13.38;42.72
73936;BME280;62287;50.858;0.252;2022-12-29T01:58:39;99564.31;;;12.94;42.67
73936;BME280;62287;50.858;0.252;2022-12-29T01:59:18;99567.48;;;12.96;42.70
73936;BME280;62287;50.858;0.252;2022-12-29T01:59:55;99566.77;;;12.95;42.96
73936;BME280;62287;50.858;0.252;2022-12-29T02:00:27;99572.05;;;13.05;42.96
73936;BME280;62287;50.858;0.252;2022-12-29T02:00:58;99569.27;;;12.48;43.07
73936;BME280;62287;50.858;0.252;2022-12-29T02:01:29;99569.46;;;13.30;42.77
73936;BME280;62287;50.858;0.252;2022-12-29T02:02:01;99564.70;;;12.72;42.82
73936;BME280;62287;50.858;0.252;2022-12-29T02:02:32;99570.57;;;12.82;42.77
73936;BME280;62287;50.858;0.252;2022-12-29T02:03:04;99573.95;;;12.85;42.78
73936;BME280;62287;50.858;0.252;2022-12-29T02:03:37;99571.27;;;13.43;42.33
73936;BME280;62287;50.858;0.252;2022-12-29T02:04:09;99581.81;;;13.40;42.50
73936;BME280;62287;50.858;0.252;2022-12-29T02:04:43;99571.70;;;13.02;42.54
73936;BME280;62287;50.858;0.252;2022-12-29T02:05:21;99585.07;;;13.53;42.46
73936;BME280;62287;50.858;0.252;2022-12-29T02:05:56;99575.21;;;12.83;42.80
73936;BME280;62287;50.858;0.252;2022-12-29T02:06:32;99585.30;;;12.65;43.06
73936;BME280;62287;50.858;0.252;2022-12-29T02:07:06;99594.44;;;13.00;43.23
73936;BME280;62287;50.858;0.252;2022-12-29T02:07:39;99606.01;;;12.76;43.39
73936;BME280;62287;50.858;0.252;2022-12-29T02:08:12;99603.88;;;12.63;43.18
73936;BME280;62287;50.858;0.252;2022-12-29T02:08:46;99614.11;;;13.22;43.24
73936;BME280;62287;50.858;0.252;2022-12-29T02:09:17;99617.75;;;12.45;43.27
73936;BME280;62287;50.858;0.252;2022-12-29T02:09:50;99615.33;;;13.21;43.24
73936;BME280;62287;50.858;0.252;2022-12-29T02:10:24;99606.10;;;13.24;42.95
73936;BME280;62287;50.858;0.252;2022-12-29T02:10:56;99609.37;;;13.10;42.69
73936;BME280;62287;50.858;0.252;2022-12-29T02:11:29;99622.21;;;13.21;42.53
73936;BME280;62287;50.858;0.252;2022-12-29T02:12:01;99622.69;;;12.97;42.73
73936;BME280;62287;50.858;0.252;2022-12-29T02:12:33;99614.02;;;13.24;42.57
73936;BME280;62287;50.858;0.252;2022-12-29T02:13:04;99611.92;;;13.19;42.50
73936;BME280;62287;50.858;0.252;2022-12-29T02:13:35;99611.62;;;13.28;42.43
73936;BME280;62287;50.858;0.252;2022-12-29T02:14:09;99602.67;;;12.78;42.77
73936;BME280;62287;50.858;0.252;2022-12-29T02:14:40;99603.47;;;13.13;42.59
73936;BME280;62287;50.858;0.252;2022-12-29T02:15:11;99582.44;;;13.58;42.38
73936;BME280;62287;50.858;0.252;2022-12-29T02:16:05;99587.68;;;13.25;42.46
73936;BME280;62287;50.858;0.252;2022-12-29T02:16:50;99575.98;;;13.59;42.30
73936;BME280;62287;50.858;0.252;2022-12-29T02:17:36;99582.70;;;13.00;42.37
73936;BME280;62287;50.858;0.252;2022-12-29T02:18:22;99584.55;;;13.21;42.23
73936;BME280;62287;50.858;0.252;2022-12-29T02:19:11;99575.75;;;13.15;42.26
73936;BME280;62287;50.858;0.252;2022-12-29T02:22:30;99578.18;;;12.75;42.62
73936;BME280;62287;50.858;0.252;2022-12-29T02:23:28;99580.46;;;13.02;42.30
73936;BME280;62287;50.858;0.252;2022-12-29T02:27:16;99579.53;;;12.96;42.33
73936;BME280;62287;50.858;0.252;2022-12-29T02:28:39;99586.17;;;13.15;42.18
73936;BME280;62287;50.858;0.252;2022-12-29T02:29:24;99576.41;;;12.66;42.57
73936;BME280;62287;50.858;0.252;2022-12-29T02:30:06;99577.90;;;12.42;42.81
73936;BME280;62287;50.858;0.252;2022-12-29T02:30:44;99586.64;;;13.24;42.72
73936;BME280;62287;50.858;0.252;2022-12-29T02:31:20;99585.80;;;12.58;42.67
73936;BME280;62287;50.858;0.252;2022-12-29T02:31:59;99577.23;;;12.78;42.51
73936;BME280;62287;50.858;0.252;2022-12-29T02:32:37;99588.09;;;13.10;42.33
73936;BME280;62287;50.858;0.252;2022-12-29T02:33:20;99588.71;;;13.53;42.28
73936;BME280;62287;50.858;0.252;2022-12-29T02:34:01;99588.43;;;13.10;42.27
73936;BME280;62287;50.858;0.252;2022-12-29T02:34:44;99572.17;;;12.78;42.64
73936;BME280;62287;50.858;0.252;2022-12-29T02:35:25;99582.60;;;12.80;42.56
73936;BME280;62287;50.858;0.252;2022-12-29T02:36:07;99583.33;;;13.81;42.35
73936;BME280;62287;50.858;0.252;2022-12-29T02:36:45;99577.99;;;12.98;42.32
73936;BME280;62287;50.858;0.252;2022-12-29T02:37:22;99573.48;;;13.21;42.64
73936;BME280;62287;50.858;0.252;2022-12-29T02:38:02;99579.14;;;12.95;42.45
73936;BME280;62287;50.858;0.252;2022-12-29T02:38:49;99574.80;;;12.94;42.69
73936;BME280;62287;50.858;0.252;2022-12-29T02:39:27;99573.80;;;13.47;42.51
73936;BME280;62287;50.858;0.252;2022-12-29T02:40:07;99567.77;;;12.59;42.64
73936;BME280;62287;50.858;0.252;2022-12-29T02:40:47;99578.85;;;13.04;42.52
73936;BME280;62287;50.858;0.252;2022-12-29T02:41:25;99566.97;;;13.46;42.52
73936;BME280;62287;50.858;0.252;2022-12-29T02:42:05;99570.75;;;12.64;42.63
73936;BME280;62287;50.858;0.252;2022-12-29T02:42:46;99577.44;;;12.77;42.42
73936;BME280;62287;50.858;0.252;2022-12-29T02:43:25;99567.04;;;13.18;42.24
73936;BME280;62287;50.858;0.252;2022-12-29T02:44:04;99583.34;;;13.33;42.29
73936;BME280;62287;50.858;0.252;2022-12-29T02:44:45;99575.68;;;12.78;42.50
73936;BME280;62287;50.858;0.252;2022-12-29T02:45:26;99574.02;;;13.15;42.51
73936;BME280;62287;50.858;0.252;2022-12-29T02:46:07;99588.09;;;12.83;42.74
73936;BME280;62287;50.858;0.252;2022-12-29T02:46:44;99582.10;;;12.88;42.66
73936;BME280;62287;50.858;0.252;2022-12-29T02:47:23;99588.00;;;12.68;42.91
73936;BME280;62287;50.858;0.252;2022-12-29T02:48:02;99575.20;;;12.99;42.61
73936;BME280;62287;50.858;0.252;2022-12-29T02:48:38;99577.29;;;13.36;42.50
73936;BME280;62287;50.858;0.252;2022-12-29T02:49:18;99571.90;;;12.53;42.75
73936;BME280;62287;50.858;0.252;2022-12-29T02:50:00;99576.95;;;12.63;42.97
73936;BME280;62287;50.858;0.252;2022-12-29T02:50:36;99581.69;;;12.81;42.94
73936;BME280;62287;50.858;0.252;2022-12-29T02:51:12;99580.05;;;12.69;43.04
73936;BME280;62287;50.858;0.252;2022-12-29T02:51:50;99568.48;;;12.87;42.87
73936;BME280;62287;50.858;0.252;2022-12-29T02:52:26;99572.25;;;12.83;42.52
73936;BME280;62287;50.858;0.252;2022-12-29T02:53:02;99584.07;;;13.13;42.11
73936;BME280;62287;50.858;0.252;2022-12-29T02:53:35;99580.44;;;13.36;42.25
73936;BME280;62287;50.858;0.252;2022-12-29T02:54:07;99572.17;;;13.28;42.30
73936;BME280;62287;50.858;0.252;2022-12-29T02:54:38;99577.61;;;12.87;42.32
73936;BME280;62287;50.858;0.252;2022-12-29T02:55:10;99577.47;;;12.98;42.21
73936;BME280;62287;50.858;0.252;2022-12-29T02:55:48;99572.91;;;12.78;42.46
73936;BME280;62287;50.858;0.252;2022-12-29T02:56:19;99572.74;;;12.67;42.44
73936;BME280;62287;50.858;0.252;2022-12-29T02:56:50;99573.09;;;13.26;42.39
73936;BME280;62287;50.858;0.252;2022-12-29T02:57:33;99570.25;;;12.55;42.57
73936;BME280;62287;50.858;0.252;2022-12-29T02:58:15;99573.49;;;12.96;42.23
73936;BME280;62287;50.858;0.252;2022-12-29T02:58:46;99567.56;;;13.74;42.23
73936;BME280;62287;50.858;0.252;2022-12-29T02:59:18;99583.73;;;13.00;42.12
73936;BME280;62287;50.858;0.252;2022-12-29T02:59:52;99574.73;;;12.88;42.23
73936;BME280;62287;50.858;0.252;2022-12-29T03:00:25;99563.52;;;13.35;42.43
73936;BME280;62287;50.858;0.252;2022-12-29T03:01:07;99568.63;;;13.22;42.35
73936;BME280;62287;50.858;0.252;2022-12-29T03:01:57;99570.40;;;12.78;42.69
73936;BME280;62287;50.858;0.252;2022-12-29T03:02:39;99573.18;;;13.55;42.42
73936;BME280;62287;50.858;0.252;2022-12-29T03:03:20;99566.85;;;12.80;42.26
73936;BME280;62287;50.858;0.252;2022-12-29T03:04:09;99583.67;;;12.56;42.43
73936;BME280;62287;50.858;0.252;2022-12-29T03:05:02;99564.66;;;12.61;42.49
73936;BME280;62287;50.858;0.252;2022-12-29T03:05:55;99567.27;;;12.13;42.93